Time;durP1;ratioP1;P1;durP2;ratioP2;P2;SDS_P1;SDS_P2;PMS_P1;PMS_P2;Temp;Humidity;BMP_temperature;BMP_pressure;BME280_temperature;BME280_humidity;BME280_pressure;Samples;Min_cycle;Max_cycle;Signal;HPM_P1;HPM_P2
2022/10/23 00:01:15;;;;;;;13.90;7.07;;;11.70;99.90;;;;;;5028343;28;20042;-68
2022/10/23 00:03:43;;;;;;;12.27;6.50;;;11.70;99.90;;;;;;5036978;28;20045;-68
2022/10/23 00:06:12;;;;;;;11.38;6.32;;;11.70;99.90;;;;;;5051545;28;20047;-68
2022/10/23 00:08:40;;;;;;;12.55;6.45;;;11.70;99.90;;;;;;5044783;28;20050;-68
2022/10/23 00:11:09;;;;;;;9.18;5.47;;;11.70;99.90;;;;;;5040057;28;20056;-69
2022/10/23 00:13:37;;;;;;;8.73;5.40;;;11.60;99.90;;;;;;5045153;28;20068;-68
2022/10/23 00:16:05;;;;;;;7.82;5.22;;;11.60;99.90;;;;;;5037612;28;20107;-68
2022/10/23 00:18:33;;;;;;;9.77;5.60;;;11.50;99.90;;;;;;5044925;28;20045;-69
2022/10/23 00:21:01;;;;;;;10.38;5.43;;;11.50;99.90;;;;;;5039889;28;20102;-69
2022/10/23 00:23:28;;;;;;;11.15;5.80;;;11.50;99.90;;;;;;5036780;28;20389;-68
2022/10/23 00:25:55;;;;;;;10.13;5.80;;;11.50;99.90;;;;;;5032153;28;20099;-68
2022/10/23 00:28:24;;;;;;;11.63;5.90;;;11.40;99.90;;;;;;5034844;28;20044;-68
2022/10/23 00:30:51;;;;;;;11.63;5.50;;;11.40;99.90;;;;;;5062490;28;20523;-69
2022/10/23 00:33:19;;;;;;;9.27;5.85;;;11.40;99.90;;;;;;5040070;28;20143;-68
2022/10/23 00:35:46;;;;;;;12.50;5.68;;;11.30;99.90;;;;;;5032634;28;20038;-68
2022/10/23 00:38:14;;;;;;;10.48;5.30;;;11.30;99.90;;;;;;5037677;28;20074;-68
2022/10/23 00:40:42;;;;;;;10.48;5.75;;;11.30;99.90;;;;;;5049713;28;20124;-69
2022/10/23 00:43:17;;;;;;;12.70;5.95;;;11.30;99.90;;;;;;5043854;28;20056;-68
2022/10/23 00:45:45;;;;;;;10.50;6.20;;;11.30;99.90;;;;;;5038407;28;20044;-69
2022/10/23 00:48:13;;;;;;;8.57;5.65;;;11.20;99.90;;;;;;5017470;28;20047;-67
2022/10/23 00:50:40;;;;;;;8.77;5.60;;;11.20;99.90;;;;;;5044724;28;20053;-67
2022/10/23 00:53:10;;;;;;;10.80;5.32;;;11.20;99.90;;;;;;5029765;28;20056;-68
2022/10/23 00:55:40;;;;;;;9.05;5.43;;;11.20;99.90;;;;;;5029698;28;20500;-69
2022/10/23 00:58:07;;;;;;;9.02;5.50;;;11.20;99.90;;;;;;5012012;28;20412;-68
2022/10/23 01:00:46;;;;;;;10.77;5.57;;;11.20;99.90;;;;;;5011799;28;20049;-68
2022/10/23 01:03:16;;;;;;;10.27;6.20;;;11.10;99.90;;;;;;5033046;28;20059;-68
2022/10/23 01:05:49;;;;;;;11.57;6.20;;;11.10;99.90;;;;;;5040798;28;20051;-68
2022/10/23 01:08:36;;;;;;;11.63;6.22;;;11.10;99.90;;;;;;5045539;28;20484;-68
2022/10/23 01:11:33;;;;;;;10.68;5.65;;;11.10;99.90;;;;;;5047850;28;20041;-68
2022/10/23 01:14:15;;;;;;;10.80;5.63;;;11.10;99.90;;;;;;5030674;28;20061;-68
2022/10/23 01:16:49;;;;;;;13.32;5.93;;;11.10;99.90;;;;;;5031518;28;20420;-68
2022/10/23 01:19:26;;;;;;;8.20;5.85;;;11.10;99.90;;;;;;5038879;28;20052;-68
2022/10/23 01:22:07;;;;;;;12.20;5.78;;;11.10;99.90;;;;;;5036930;28;20045;-68
2022/10/23 01:24:47;;;;;;;14.48;6.32;;;11.10;99.90;;;;;;5028807;28;20056;-69
2022/10/23 01:27:22;;;;;;;8.68;5.55;;;11.10;99.90;;;;;;5075769;28;20052;-68
2022/10/23 01:30:07;;;;;;;8.80;5.43;;;11.10;99.90;;;;;;5028712;28;20388;-68
2022/10/23 01:32:43;;;;;;;12.27;6.00;;;11.10;99.90;;;;;;5035627;28;20037;-70
2022/10/23 01:35:20;;;;;;;14.77;6.10;;;11.10;99.90;;;;;;5037156;28;20034;-69
2022/10/23 01:38:15;;;;;;;10.50;6.00;;;11.10;99.90;;;;;;5061011;28;20049;-69
2022/10/23 01:40:57;;;;;;;7.32;5.43;;;11.20;99.90;;;;;;5011250;28;20054;-68
2022/10/23 01:43:34;;;;;;;7.45;5.25;;;11.20;99.90;;;;;;5027909;28;20452;-69
2022/10/23 01:46:07;;;;;;;6.45;4.85;;;11.20;99.90;;;;;;5036884;28;20059;-69
2022/10/23 01:48:37;;;;;;;8.75;5.72;;;11.20;99.90;;;;;;5028261;28;20484;-68
2022/10/23 01:51:08;;;;;;;7.75;5.18;;;11.20;99.90;;;;;;5042770;28;20045;-69
2022/10/23 01:53:40;;;;;;;12.13;5.45;;;11.20;99.90;;;;;;5081459;28;20037;-69
2022/10/23 01:56:14;;;;;;;8.52;5.18;;;11.20;99.90;;;;;;5044355;28;20064;-69
2022/10/23 01:58:42;;;;;;;;;;;11.20;99.90;;;;;;5036460;28;20072;-69
2022/10/23 02:01:12;;;;;;;11.40;5.30;;;11.20;99.90;;;;;;5027439;28;19925;-69
2022/10/23 02:03:48;;;;;;;7.72;4.95;;;11.10;99.90;;;;;;5035750;28;20464;-69
2022/10/23 02:06:16;;;;;;;8.45;4.93;;;11.10;99.90;;;;;;5055010;28;20040;-69
2022/10/23 02:08:43;;;;;;;10.82;5.25;;;11.10;99.90;;;;;;5029681;28;20563;-69
2022/10/23 02:11:17;;;;;;;10.13;4.82;;;11.00;99.90;;;;;;5061528;28;20061;-69
2022/10/23 02:13:54;;;;;;;10.05;4.57;;;11.00;99.90;;;;;;5061671;28;20045;-69
2022/10/23 02:16:35;;;;;;;11.57;5.32;;;11.00;99.90;;;;;;5028230;28;20558;-69
2022/10/23 02:19:32;;;;;;;10.25;5.32;;;10.90;99.90;;;;;;5040632;28;20504;-69
2022/10/23 02:22:27;;;;;;;10.27;4.65;;;10.90;99.90;;;;;;5068733;28;20511;-69
2022/10/23 02:25:12;;;;;;;7.38;4.72;;;10.90;99.90;;;;;;5045990;28;20053;-69
2022/10/23 02:27:51;;;;;;;12.63;5.05;;;10.90;99.90;;;;;;5015439;28;20092;-69
2022/10/23 02:30:20;;;;;;;7.15;4.78;;;10.80;99.90;;;;;;5034324;28;20561;-69
2022/10/23 02:32:56;;;;;;;6.57;4.95;;;10.80;99.90;;;;;;5044355;28;20033;-69
2022/10/23 02:35:24;;;;;;;10.80;5.80;;;10.80;99.90;;;;;;5043224;28;20077;-69
2022/10/23 02:38:01;;;;;;;9.68;5.45;;;10.80;99.90;;;;;;5032073;28;20089;-68
2022/10/23 02:40:37;;;;;;;8.52;5.03;;;10.70;99.90;;;;;;5047142;28;20123;-69
2022/10/23 02:43:26;;;;;;;8.93;5.20;;;10.70;99.90;;;;;;5048552;28;20037;-69
2022/10/23 02:46:07;;;;;;;10.10;5.38;;;10.60;99.90;;;;;;5051197;28;20108;-69
2022/10/23 02:48:43;;;;;;;8.20;5.25;;;10.60;99.90;;;;;;5039971;28;20392;-68
2022/10/23 02:51:48;;;;;;;8.15;5.10;;;10.50;99.90;;;;;;5037428;28;20080;-69
2022/10/23 02:54:28;;;;;;;11.93;5.47;;;10.50;99.90;;;;;;5047026;28;20522;-69
2022/10/23 02:57:03;;;;;;;9.98;5.13;;;10.50;99.90;;;;;;5038896;28;20060;-68
2022/10/23 02:59:52;;;;;;;7.40;5.15;;;10.40;99.90;;;;;;5050621;28;20491;-68
2022/10/23 03:02:40;;;;;;;9.73;5.70;;;10.40;99.90;;;;;;5047991;28;20042;-68
2022/10/23 03:05:15;;;;;;;10.43;5.00;;;10.30;99.90;;;;;;5024180;28;20072;-69
2022/10/23 03:07:43;;;;;;;7.90;4.95;;;10.30;99.90;;;;;;5042586;28;20049;-69
2022/10/23 03:10:10;;;;;;;10.02;5.30;;;10.30;99.90;;;;;;5047689;28;20804;-69
2022/10/23 03:12:38;;;;;;;10.98;5.68;;;10.30;99.90;;;;;;5047529;28;20030;-69
2022/10/23 03:15:07;;;;;;;7.38;4.80;;;10.30;99.90;;;;;;5049070;28;20048;-69
2022/10/23 03:17:34;;;;;;;9.60;5.03;;;10.30;99.90;;;;;;5043045;28;20543;-69
2022/10/23 03:20:04;;;;;;;9.25;5.30;;;10.30;99.90;;;;;;5049683;28;20045;-70
2022/10/23 03:22:31;;;;;;;9.13;5.60;;;10.40;99.90;;;;;;5040623;28;20046;-69
2022/10/23 03:24:59;;;;;;;8.02;5.65;;;10.40;99.90;;;;;;5077789;28;20449;-69
2022/10/23 03:27:29;;;;;;;9.68;5.40;;;10.40;99.90;;;;;;5046559;28;20152;-69
2022/10/23 03:29:58;;;;;;;8.02;5.50;;;10.40;99.90;;;;;;5041419;28;20399;-69
2022/10/23 03:32:25;;;;;;;9.02;4.85;;;10.40;99.90;;;;;;5032889;28;20140;-69
2022/10/23 03:34:53;;;;;;;9.27;5.20;;;10.40;99.90;;;;;;5036655;28;20041;-69
2022/10/23 03:37:21;;;;;;;8.57;5.10;;;10.30;99.90;;;;;;5029618;28;20121;-70
2022/10/23 03:39:49;;;;;;;8.65;5.30;;;10.40;99.90;;;;;;5029045;28;20049;-69
2022/10/23 03:42:17;;;;;;;10.10;5.15;;;10.30;99.90;;;;;;5055913;28;20049;-69
2022/10/23 03:44:44;;;;;;;6.75;4.93;;;10.30;99.90;;;;;;5046985;28;20043;-70
2022/10/23 03:47:11;;;;;;;12.00;5.47;;;10.30;99.90;;;;;;5053091;28;20104;-69
2022/10/23 03:49:40;;;;;;;12.43;5.63;;;10.20;99.90;;;;;;5047241;28;20504;-69
2022/10/23 03:52:08;;;;;;;9.50;5.90;;;10.30;99.90;;;;;;5044758;28;20052;-69
2022/10/23 03:54:35;;;;;;;10.30;5.78;;;10.20;99.90;;;;;;5072041;28;20045;-69
2022/10/23 03:57:02;;;;;;;8.82;5.93;;;10.20;99.90;;;;;;5044596;28;20041;-69
2022/10/23 03:59:30;;;;;;;11.82;6.32;;;10.30;99.90;;;;;;5047499;28;20044;-69
2022/10/23 04:01:58;;;;;;;13.52;6.35;;;10.30;99.90;;;;;;5045953;28;20042;-70
2022/10/23 04:04:26;;;;;;;8.80;6.50;;;10.30;99.90;;;;;;5043295;28;20065;-69
2022/10/23 04:06:53;;;;;;;9.10;6.45;;;10.30;99.90;;;;;;5056084;28;20065;-69
2022/10/23 04:09:21;;;;;;;10.38;5.95;;;10.40;99.90;;;;;;5065555;28;20048;-69
2022/10/23 04:11:48;;;;;;;8.88;5.43;;;10.40;99.90;;;;;;5038775;28;20112;-69
2022/10/23 04:14:16;;;;;;;14.18;6.30;;;10.30;99.90;;;;;;5047497;28;20128;-69
2022/10/23 04:16:43;;;;;;;9.70;6.10;;;10.30;99.90;;;;;;5045175;28;20071;-69
2022/10/23 04:19:10;;;;;;;6.70;4.78;;;10.30;99.90;;;;;;5070546;28;20057;-70
2022/10/23 04:21:38;;;;;;;9.90;5.45;;;10.30;99.90;;;;;;5060370;28;20048;-68
2022/10/23 04:24:05;;;;;;;7.13;5.35;;;10.20;99.90;;;;;;5045209;28;20046;-68
2022/10/23 04:26:33;;;;;;;10.45;5.60;;;10.20;99.90;;;;;;5043760;28;20048;-68
2022/10/23 04:29:00;;;;;;;8.60;5.85;;;10.20;99.90;;;;;;5050030;28;20041;-68
2022/10/23 04:31:28;;;;;;;10.48;5.80;;;10.10;99.90;;;;;;5015934;28;20048;-68
2022/10/23 04:33:56;;;;;;;10.07;5.60;;;10.10;99.90;;;;;;5060341;28;20037;-68
2022/10/23 04:36:28;;;;;;;13.70;6.25;;;10.10;99.90;;;;;;5047756;28;20045;-68
2022/10/23 04:39:01;;;;;;;11.57;5.55;;;10.10;99.90;;;;;;5058894;28;20578;-68
2022/10/23 04:41:29;;;;;;;8.65;5.18;;;10.10;99.90;;;;;;5045060;28;20045;-69
2022/10/23 04:43:56;;;;;;;9.88;5.60;;;10.00;99.90;;;;;;5043629;28;20087;-69
2022/10/23 04:46:23;;;;;;;11.32;5.93;;;10.10;99.90;;;;;;5055142;28;20049;-68
2022/10/23 04:48:51;;;;;;;9.65;5.75;;;10.00;99.90;;;;;;5055750;28;20124;-69
2022/10/23 04:51:37;;;;;;;9.23;5.22;;;10.10;99.90;;;;;;5036036;28;20033;-68
2022/10/23 04:54:12;;;;;;;9.68;5.22;;;10.00;99.90;;;;;;5039983;28;20452;-68
2022/10/23 04:56:39;;;;;;;12.27;5.78;;;10.00;99.90;;;;;;5047965;28;20079;-68
2022/10/23 04:59:11;;;;;;;9.65;5.75;;;10.00;99.90;;;;;;5037161;28;20518;-68
2022/10/23 05:01:39;;;;;;;8.95;5.32;;;10.00;99.90;;;;;;5045228;28;20507;-68
2022/10/23 05:04:08;;;;;;;8.10;5.35;;;10.00;99.90;;;;;;5046293;28;20098;-68
2022/10/23 05:06:58;;;;;;;9.35;5.70;;;10.00;99.90;;;;;;5050677;28;20087;-68
2022/10/23 05:09:42;;;;;;;9.80;5.88;;;10.00;99.90;;;;;;5048314;28;20033;-68
2022/10/23 05:12:24;;;;;;;9.82;5.35;;;10.00;99.90;;;;;;5035900;28;20368;-68
2022/10/23 05:14:52;;;;;;;10.45;5.80;;;9.90;99.90;;;;;;5043046;28;20094;-67
2022/10/23 05:17:31;;;;;;;9.32;5.68;;;9.90;99.90;;;;;;5045204;28;20404;-68
2022/10/23 05:20:01;;;;;;;8.98;5.45;;;9.90;99.90;;;;;;5041598;28;20062;-68
2022/10/23 05:22:32;;;;;;;8.63;5.55;;;9.90;99.90;;;;;;5039206;28;20550;-68
2022/10/23 05:25:01;;;;;;;9.20;5.65;;;9.90;99.90;;;;;;5053722;28;20051;-68
2022/10/23 05:27:31;;;;;;;12.35;6.07;;;9.80;99.90;;;;;;5025977;28;20063;-68
2022/10/23 05:29:58;;;;;;;8.93;4.95;;;9.80;99.90;;;;;;5041997;28;20119;-68
2022/10/23 05:32:31;;;;;;;7.15;4.97;;;9.80;99.90;;;;;;5043704;28;20091;-70
2022/10/23 05:35:01;;;;;;;6.75;4.47;;;9.80;99.90;;;;;;5047911;28;20446;-68
2022/10/23 05:37:30;;;;;;;8.10;5.40;;;9.80;99.90;;;;;;5046932;28;20045;-67
2022/10/23 05:40:18;;;;;;;8.10;4.90;;;9.70;99.90;;;;;;5029978;28;20041;-68
2022/10/23 05:42:47;;;;;;;8.70;5.50;;;9.80;99.90;;;;;;5044516;28;20454;-68
2022/10/23 05:45:18;;;;;;;8.82;5.18;;;9.70;99.90;;;;;;5055385;28;20555;-68
2022/10/23 05:48:05;;;;;;;6.93;4.80;;;9.70;99.90;;;;;;5051258;28;20059;-68
2022/10/23 05:51:09;;;;;;;11.25;5.45;;;9.70;99.90;;;;;;5049291;28;20472;-69
2022/10/23 05:54:12;;;;;;;7.60;5.50;;;9.70;99.90;;;;;;5029947;28;20615;-68
2022/10/23 05:56:45;;;;;;;9.80;5.50;;;9.80;99.90;;;;;;5041286;28;20041;-68
2022/10/23 05:59:28;;;;;;;9.55;5.47;;;9.80;99.90;;;;;;5032873;28;20140;-69
2022/10/23 06:02:19;;;;;;;9.43;5.80;;;9.80;99.90;;;;;;5051744;28;20059;-68
2022/10/23 06:04:58;;;;;;;9.73;5.25;;;9.90;99.90;;;;;;5045396;28;20412;-68
2022/10/23 06:07:44;;;;;;;10.20;6.00;;;9.90;99.90;;;;;;5047546;28;20131;-68
2022/10/23 06:10:12;;;;;;;7.80;5.50;;;10.00;99.90;;;;;;5067008;28;20790;-69
2022/10/23 06:12:43;;;;;;;8.68;6.55;;;10.00;99.90;;;;;;5033280;28;20051;-69
2022/10/23 06:15:14;;;;;;;9.98;6.60;;;10.00;99.90;;;;;;5062860;28;20057;-69
2022/10/23 06:18:05;;;;;;;10.35;5.25;;;10.10;99.90;;;;;;5030702;28;20057;-69
2022/10/23 06:20:37;;;;;;;8.25;5.85;;;10.20;99.90;;;;;;5029794;28;20148;-69
2022/10/23 06:23:21;;;;;;;9.00;5.15;;;10.30;99.90;;;;;;5058636;28;20408;-69
2022/10/23 06:26:01;;;;;;;6.53;5.03;;;10.40;99.90;;;;;;5046384;28;20041;-69
2022/10/23 06:28:36;;;;;;;8.70;5.60;;;10.50;99.90;;;;;;5046036;28;20454;-70
2022/10/23 06:31:08;;;;;;;9.02;5.40;;;10.60;99.90;;;;;;5046551;28;20041;-70
2022/10/23 06:33:36;;;;;;;7.25;5.35;;;10.70;99.90;;;;;;5042873;28;20041;-69
2022/10/23 06:36:09;;;;;;;7.15;5.00;;;10.80;99.90;;;;;;5030383;28;20040;-70
2022/10/23 06:38:39;;;;;;;7.50;5.15;;;10.90;99.90;;;;;;5042707;28;20060;-70
2022/10/23 06:41:13;;;;;;;10.75;4.68;;;11.00;99.90;;;;;;5033559;28;20052;-70
2022/10/23 06:43:42;;;;;;;9.13;4.90;;;11.10;99.90;;;;;;5048599;28;20504;-68
2022/10/23 06:46:13;;;;;;;9.27;5.03;;;11.20;99.90;;;;;;5057031;28;20091;-69
2022/10/23 06:49:03;;;;;;;8.13;5.38;;;11.30;99.90;;;;;;5049886;28;20052;-68
2022/10/23 06:51:35;;;;;;;13.85;5.43;;;11.40;99.90;;;;;;5043780;28;20091;-68
2022/10/23 06:54:04;;;;;;;11.25;5.63;;;11.50;99.90;;;;;;5046621;28;20408;-68
2022/10/23 06:56:57;;;;;;;10.57;7.55;;;11.60;99.90;;;;;;5032113;28;20592;-68
2022/10/23 06:59:39;;;;;;;;;;;11.70;99.90;;;;;;5038601;28;20545;-68
2022/10/23 07:02:09;;;;;;;10.27;6.72;;;11.80;99.90;;;;;;5030005;28;19929;-68
2022/10/23 07:04:38;;;;;;;10.50;6.15;;;11.90;99.90;;;;;;5033887;28;20442;-68
2022/10/23 07:07:10;;;;;;;9.45;6.57;;;12.00;99.90;;;;;;5051941;28;20037;-68
2022/10/23 07:09:44;;;;;;;10.45;5.18;;;12.10;99.90;;;;;;5048638;28;20111;-67
2022/10/23 07:12:28;;;;;;;7.18;4.90;;;12.10;99.90;;;;;;5035293;28;20061;-67
2022/10/23 07:15:14;;;;;;;7.90;4.72;;;12.20;99.90;;;;;;5044760;28;20079;-67
2022/10/23 07:17:42;;;;;;;7.30;5.10;;;12.20;99.90;;;;;;5045536;28;20065;-68
2022/10/23 07:20:10;;;;;;;9.85;5.85;;;12.30;99.90;;;;;;5048162;28;20478;-67
2022/10/23 07:22:37;;;;;;;9.75;5.78;;;12.40;99.90;;;;;;5033387;28;20223;-68
2022/10/23 07:25:11;;;;;;;7.85;5.57;;;12.40;99.90;;;;;;5049687;28;20091;-68
2022/10/23 07:27:39;;;;;;;9.23;5.57;;;12.50;99.90;;;;;;5033681;28;20068;-68
2022/10/23 07:30:09;;;;;;;8.23;5.50;;;12.60;99.90;;;;;;5047105;28;20040;-68
2022/10/23 07:32:45;;;;;;;10.18;5.85;;;12.60;99.90;;;;;;5034538;28;20114;-69
2022/10/23 07:35:31;;;;;;;9.95;5.75;;;12.80;99.90;;;;;;5037276;28;20113;-69
2022/10/23 07:38:12;;;;;;;12.65;6.28;;;12.90;99.90;;;;;;5049978;28;20049;-68
2022/10/23 07:40:46;;;;;;;9.15;5.75;;;13.00;99.90;;;;;;5028304;28;20049;-67
2022/10/23 07:43:17;;;;;;;7.65;4.93;;;13.00;99.90;;;;;;5045933;28;20049;-68
2022/10/23 07:45:48;;;;;;;8.02;5.32;;;13.20;99.90;;;;;;5044458;28;20091;-68
2022/10/23 07:48:23;;;;;;;11.00;5.88;;;13.30;99.90;;;;;;5049501;28;20037;-67
2022/10/23 07:51:02;;;;;;;11.77;7.28;;;13.40;99.90;;;;;;5047054;28;20570;-67
2022/10/23 07:53:30;;;;;;;8.60;5.90;;;13.50;99.90;;;;;;5079330;28;20482;-67
2022/10/23 07:56:21;;;;;;;7.00;5.18;;;13.60;99.90;;;;;;5046023;28;20044;-68
2022/10/23 07:59:12;;;;;;;8.93;6.05;;;13.70;99.90;;;;;;5049043;28;20057;-69
2022/10/23 08:01:44;;;;;;;7.65;4.60;;;13.90;99.90;;;;;;5044958;28;20045;-69
2022/10/23 08:04:11;;;;;;;6.32;4.50;;;14.00;99.90;;;;;;5047800;28;20048;-68
2022/10/23 08:06:48;;;;;;;8.70;5.80;;;14.20;99.90;;;;;;5051606;28;20408;-68
2022/10/23 08:09:15;;;;;;;9.68;6.15;;;14.30;99.90;;;;;;5040824;28;20135;-68
2022/10/23 08:11:43;;;;;;;11.57;5.82;;;14.50;99.90;;;;;;5045215;28;20120;-69
2022/10/23 08:14:14;;;;;;;10.65;7.35;;;14.60;99.90;;;;;;5040262;28;20037;-68
2022/10/23 08:16:43;;;;;;;9.25;5.65;;;14.70;99.90;;;;;;5048020;28;20056;-68
2022/10/23 08:19:16;;;;;;;8.18;5.40;;;14.80;99.90;;;;;;5047011;28;20041;-68
2022/10/23 08:21:45;;;;;;;9.55;5.88;;;14.90;99.90;;;;;;5041014;28;20048;-68
2022/10/23 08:24:13;;;;;;;8.63;5.03;;;15.00;99.90;;;;;;5080993;28;20055;-68
2022/10/23 08:26:43;;;;;;;6.90;4.45;;;15.10;99.90;;;;;;5025639;28;20041;-68
2022/10/23 08:29:12;;;;;;;5.40;3.70;;;15.10;99.90;;;;;;5044963;28;20042;-67
2022/10/23 08:31:41;;;;;;;6.85;4.00;;;15.20;99.90;;;;;;5023820;28;20048;-68
2022/10/23 08:34:22;;;;;;;16.90;4.57;;;15.20;99.90;;;;;;5023730;28;20041;-68
2022/10/23 08:36:51;;;;;;;6.40;4.40;;;15.30;99.90;;;;;;5042863;28;20380;-69
2022/10/23 08:39:18;;;;;;;6.68;3.85;;;15.40;99.90;;;;;;5044636;28;20515;-68
2022/10/23 08:42:22;;;;;;;6.15;3.70;;;15.60;99.90;;;;;;5045774;28;20602;-68
2022/10/23 08:44:59;;;;;;;9.15;5.50;;;15.70;99.90;;;;;;5053771;28;20045;-68
2022/10/23 08:47:49;;;;;;;8.10;4.75;;;15.90;99.90;;;;;;5047677;28;20053;-68
2022/10/23 08:50:58;;;;;;;8.45;4.30;;;16.10;99.90;;;;;;5043575;28;20118;-68
2022/10/23 08:53:40;;;;;;;5.35;3.10;;;16.20;99.90;;;;;;5046048;28;20053;-68
2022/10/23 08:56:21;;;;;;;;;;;16.30;99.90;;;;;;5043957;28;20045;-69
2022/10/23 08:58:57;;;;;;;5.32;3.08;;;16.50;99.90;;;;;;5041194;28;19921;-69
2022/10/23 09:01:51;;;;;;;6.35;3.53;;;16.60;99.90;;;;;;5044405;28;20042;-69
2022/10/23 09:04:18;;;;;;;5.22;3.10;;;16.80;99.90;;;;;;5041368;28;20053;-69
2022/10/23 09:06:51;;;;;;;5.07;3.60;;;16.90;99.90;;;;;;5051581;28;20112;-70
2022/10/23 09:09:51;;;;;;;6.72;3.58;;;17.10;99.90;;;;;;5045631;28;20056;-69
2022/10/23 09:12:24;;;;;;;7.00;3.33;;;17.20;99.90;;;;;;5031866;28;20455;-68
2022/10/23 09:15:22;;;;;;;5.18;2.88;;;17.40;99.90;;;;;;5044311;28;20828;-69
2022/10/23 09:18:11;;;;;;;5.47;2.67;;;17.50;99.90;;;;;;5056875;28;20047;-69
2022/10/23 09:20:41;;;;;;;4.57;2.40;;;17.70;99.90;;;;;;5048370;28;20483;-69
2022/10/23 09:23:22;;;;;;;4.93;2.42;;;17.70;99.90;;;;;;5044685;28;20458;-70
2022/10/23 09:25:55;;;;;;;5.38;2.08;;;17.80;99.90;;;;;;5041486;28;20530;-69
2022/10/23 09:28:40;;;;;;;2.92;2.17;;;17.80;99.90;;;;;;5041031;28;20103;-69
2022/10/23 09:31:10;;;;;;;3.75;1.98;;;17.90;99.90;;;;;;5046357;28;20103;-69
2022/10/23 09:33:38;;;;;;;4.47;2.50;;;17.90;99.90;;;;;;5056229;28;20072;-71
2022/10/23 09:36:16;;;;;;;3.30;2.30;;;18.00;99.90;;;;;;5039635;28;20457;-69
2022/10/23 09:38:49;;;;;;;4.85;3.53;;;18.00;99.90;;;;;;5038992;28;20077;-69
2022/10/23 09:41:27;;;;;;;5.10;3.88;;;17.90;99.90;;;;;;5042645;28;20056;-69
2022/10/23 09:44:19;;;;;;;4.05;2.70;;;17.90;99.90;;;;;;5048468;28;20491;-68
2022/10/23 09:46:49;;;;;;;2.20;1.92;;;18.00;99.90;;;;;;5062027;28;20037;-69
2022/10/23 09:49:28;;;;;;;3.88;2.35;;;18.10;99.90;;;;;;5038977;28;20057;-69
2022/10/23 09:52:33;;;;;;;4.93;2.83;;;18.10;99.90;;;;;;5027094;28;20053;-68
2022/10/23 09:55:14;;;;;;;5.68;2.42;;;18.20;99.90;;;;;;5029651;28;20045;-68
2022/10/23 09:57:43;;;;;;;5.47;3.60;;;18.30;99.90;;;;;;5066309;28;20041;-68
2022/10/23 10:00:21;;;;;;;4.28;2.67;;;18.50;99.90;;;;;;5046620;28;20526;-69
2022/10/23 10:03:01;;;;;;;3.05;2.33;;;18.70;99.90;;;;;;5042890;28;20056;-71
2022/10/23 10:06:03;;;;;;;2.97;2.25;;;19.00;99.90;;;;;;5035488;28;20486;-69
2022/10/23 10:08:47;;;;;;;7.30;5.35;;;19.10;99.90;;;;;;5032884;28;20525;-68
2022/10/23 10:11:42;;;;;;;7.88;3.53;;;19.00;99.90;;;;;;5035545;28;20419;-69
2022/10/23 10:14:34;;;;;;;6.18;2.90;;;19.10;99.90;;;;;;5046746;28;20179;-71
2022/10/23 10:17:18;;;;;;;4.40;2.83;;;19.30;99.90;;;;;;5070931;28;20565;-68
2022/10/23 10:20:24;;;;;;;3.83;2.60;;;19.50;99.90;;;;;;5050162;28;20041;-68
2022/10/23 10:23:19;;;;;;;3.63;2.63;;;19.60;99.90;;;;;;5022549;28;20049;-69
2022/10/23 10:26:19;;;;;;;3.03;2.40;;;19.50;99.90;;;;;;5039665;28;20060;-70
2022/10/23 10:29:08;;;;;;;3.20;2.60;;;19.50;99.90;;;;;;5047020;28;20064;-71
2022/10/23 10:31:57;;;;;;;3.75;2.78;;;19.60;99.90;;;;;;5066880;28;20042;-72
2022/10/23 10:34:39;;;;;;;5.80;2.87;;;19.70;99.90;;;;;;5044222;28;20038;-70
2022/10/23 10:37:33;;;;;;;5.38;2.85;;;19.90;99.90;;;;;;5051512;28;20566;-71
2022/10/23 10:40:19;;;;;;;4.07;2.80;;;19.90;99.90;;;;;;5043917;28;20045;-70
2022/10/23 10:43:02;;;;;;;7.07;5.70;;;20.00;99.90;;;;;;5050776;28;20537;-70
2022/10/23 10:45:44;;;;;;;7.20;4.28;;;19.90;99.90;;;;;;5061421;28;20048;-71
2022/10/23 10:48:46;;;;;;;26.00;16.45;;;19.80;99.90;;;;;;5032106;28;20053;-72
2022/10/23 10:51:44;;;;;;;11.13;6.88;;;20.10;99.90;;;;;;5046906;28;20095;-72
2022/10/23 10:54:25;;;;;;;9.32;5.82;;;20.70;99.90;;;;;;5044805;28;20642;-72
2022/10/23 10:56:54;;;;;;;6.43;2.95;;;20.90;99.90;;;;;;5045029;28;20044;-73
2022/10/23 10:59:29;;;;;;;6.15;3.35;;;21.30;99.90;;;;;;5065888;28;20046;-71
2022/10/23 11:02:00;;;;;;;4.90;3.58;;;21.70;99.90;;;;;;5044093;28;20060;-73
2022/10/23 11:04:43;;;;;;;4.60;3.70;;;21.80;99.90;;;;;;5040932;28;20060;-73
2022/10/23 11:07:17;;;;;;;3.83;3.00;;;22.10;99.90;;;;;;5047331;28;20075;-73
2022/10/23 11:09:45;;;;;;;4.65;3.08;;;22.40;99.90;;;;;;5030981;28;20391;-71
2022/10/23 11:12:22;;;;;;;4.05;3.10;;;22.60;99.90;;;;;;5038736;28;20661;-71
2022/10/23 11:14:50;;;;;;;3.65;2.88;;;22.90;99.90;;;;;;5037700;28;20470;-70
2022/10/23 11:17:35;;;;;;;4.70;3.50;;;23.00;99.90;;;;;;5043146;28;20487;-72
2022/10/23 11:20:28;;;;;;;9.70;6.93;;;23.10;99.90;;;;;;5043941;28;20107;-72
2022/10/23 11:23:23;;;;;;;6.20;5.30;;;23.30;99.90;;;;;;5044586;28;20047;-70
2022/10/23 11:25:54;;;;;;;8.73;5.03;;;23.60;99.90;;;;;;5037746;28;20526;-71
2022/10/23 11:28:44;;;;;;;4.57;3.75;;;23.40;99.90;;;;;;5043919;28;20049;-71
2022/10/23 11:31:32;;;;;;;5.82;3.22;;;23.50;99.90;;;;;;5048873;28;20645;-71
2022/10/23 11:34:03;;;;;;;3.95;3.53;;;23.70;99.90;;;;;;5037905;28;20443;-72
2022/10/23 11:36:55;;;;;;;3.80;3.40;;;23.80;99.90;;;;;;5046824;28;20052;-71
2022/10/23 11:39:26;;;;;;;6.85;4.47;;;24.40;99.90;;;;;;5049836;28;20044;-72
2022/10/23 11:42:03;;;;;;;4.97;4.10;;;24.50;99.90;;;;;;5039918;28;20038;-72
2022/10/23 11:44:43;;;;;;;7.47;4.88;;;24.40;99.90;;;;;;5031703;28;20048;-71
2022/10/23 11:47:32;;;;;;;4.72;3.63;;;24.00;99.90;;;;;;5036399;28;20400;-73
2022/10/23 11:50:05;;;;;;;6.30;4.10;;;24.10;99.90;;;;;;5034700;28;20049;-72
2022/10/23 11:52:38;;;;;;;6.20;4.13;;;24.30;99.90;;;;;;5047001;28;20484;-72
2022/10/23 11:55:30;;;;;;;6.25;3.88;;;24.20;99.90;;;;;;5045787;28;20466;-72
2022/10/23 11:58:14;;;;;;;5.70;4.18;;;24.50;99.90;;;;;;5050721;28;20483;-71
2022/10/23 12:00:58;;;;;;;6.93;4.25;;;24.40;99.90;;;;;;5042317;28;20423;-72
2022/10/23 12:03:41;;;;;;;8.18;4.25;;;24.50;99.90;;;;;;5062555;28;20051;-74
2022/10/23 12:06:26;;;;;;;5.03;3.60;;;24.90;99.90;;;;;;5047160;28;20047;-75
2022/10/23 12:09:02;;;;;;;4.20;3.55;;;24.80;99.90;;;;;;5041550;28;20049;-73
2022/10/23 12:11:45;;;;;;;4.68;3.42;;;24.80;99.90;;;;;;5010806;28;20345;-70
2022/10/23 12:14:26;;;;;;;6.55;3.60;;;24.90;99.90;;;;;;5040243;28;20128;-71
2022/10/23 12:16:54;;;;;;;4.32;3.90;;;25.20;99.90;;;;;;5077526;28;20045;-71
2022/10/23 12:19:24;;;;;;;5.90;3.95;;;26.10;99.90;;;;;;5052539;28;20045;-71
2022/10/23 12:21:57;;;;;;;4.25;3.85;;;27.50;99.90;;;;;;5061149;28;20099;-70
2022/10/23 12:24:38;;;;;;;7.68;4.20;;;27.30;99.90;;;;;;5045515;28;20041;-70
2022/10/23 12:27:18;;;;;;;7.50;6.50;;;27.10;99.90;;;;;;5050572;28;20057;-70
2022/10/23 12:30:31;;;;;;;4.97;3.70;;;27.20;99.90;;;;;;5031925;28;20056;-71
2022/10/23 12:33:17;;;;;;;3.90;3.60;;;26.60;99.90;;;;;;5025183;28;20510;-71
2022/10/23 12:36:07;;;;;;;5.13;4.28;;;26.00;99.90;;;;;;5037598;28;20044;-70
2022/10/23 12:38:45;;;;;;;6.38;4.78;;;25.30;99.90;;;;;;5044544;28;20499;-71
2022/10/23 12:41:26;;;;;;;4.45;3.95;;;25.10;99.90;;;;;;5043310;28;20064;-70
2022/10/23 12:44:02;;;;;;;3.90;3.60;;;24.70;99.90;;;;;;5049420;28;20037;-71
2022/10/23 12:46:38;;;;;;;5.35;3.90;;;24.40;99.90;;;;;;5054570;28;20071;-71
2022/10/23 12:49:23;;;;;;;4.78;3.75;;;24.50;99.90;;;;;;5043848;28;20045;-71
2022/10/23 12:51:56;;;;;;;5.78;4.25;;;24.40;99.90;;;;;;5038864;28;20135;-70
2022/10/23 12:54:24;;;;;;;4.97;4.22;;;24.70;99.90;;;;;;5037430;28;20041;-71
2022/10/23 12:56:52;;;;;;;4.57;4.18;;;24.80;99.90;;;;;;5048407;28;20044;-71
2022/10/23 12:59:25;;;;;;;4.20;3.80;;;25.10;99.90;;;;;;5047363;28;20044;-71
2022/10/23 13:01:53;;;;;;;6.22;3.92;;;25.30;99.90;;;;;;5042976;28;20495;-70
2022/10/23 13:04:29;;;;;;;4.18;3.78;;;25.10;99.90;;;;;;5044642;28;20108;-71
2022/10/23 13:06:59;;;;;;;5.57;4.00;;;25.10;99.90;;;;;;5038237;28;20049;-73
2022/10/23 13:09:39;;;;;;;4.20;3.80;;;24.90;99.90;;;;;;5081133;28;20037;-72
2022/10/23 13:12:33;;;;;;;4.03;3.63;;;25.00;99.90;;;;;;5038022;28;20049;-72
2022/10/23 13:15:06;;;;;;;4.38;3.80;;;24.70;99.90;;;;;;5033052;28;20458;-72
2022/10/23 13:17:39;;;;;;;4.20;3.80;;;24.40;99.90;;;;;;5049215;28;20458;-72
2022/10/23 13:20:16;;;;;;;8.82;6.60;;;24.20;99.90;;;;;;5046803;28;20130;-72
2022/10/23 13:22:46;;;;;;;5.53;4.80;;;23.60;99.90;;;;;;5052677;28;20373;-71
2022/10/23 13:25:26;;;;;;;5.22;3.80;;;23.20;99.90;;;;;;5066034;28;20049;-71
2022/10/23 13:28:26;;;;;;;5.25;4.18;;;22.80;99.90;;;;;;5047224;28;20047;-70
2022/10/23 13:31:25;;;;;;;5.05;3.80;;;22.40;99.90;;;;;;5034332;28;20049;-71
2022/10/23 13:33:59;;;;;;;4.63;4.05;;;22.10;99.90;;;;;;5033230;28;20519;-71